sensor_id;sensor_type;location;lat;lon;timestamp;temperature;humidity
64111;DHT22;50401;48.188;11.566;2022-08-07T00:00:59;18.40;83.69
64111;DHT22;50401;48.188;11.566;2022-08-07T00:03:24;18.04;84.73
64111;DHT22;50401;48.188;11.566;2022-08-07T00:05:51;18.09;84.78
64111;DHT22;50401;48.188;11.566;2022-08-07T00:08:18;18.02;84.97
64111;DHT22;50401;48.188;11.566;2022-08-07T00:10:44;17.96;85.30
64111;DHT22;50401;48.188;11.566;2022-08-07T00:13:10;17.96;84.80
64111;DHT22;50401;48.188;11.566;2022-08-07T00:15:36;17.89;84.98
64111;DHT22;50401;48.188;11.566;2022-08-07T00:18:02;18.00;84.46
64111;DHT22;50401;48.188;11.566;2022-08-07T00:20:28;18.10;83.92
64111;DHT22;50401;48.188;11.566;2022-08-07T00:22:54;17.89;84.27
64111;DHT22;50401;48.188;11.566;2022-08-07T00:25:19;17.95;84.17
64111;DHT22;50401;48.188;11.566;2022-08-07T00:27:44;17.97;84.08
64111;DHT22;50401;48.188;11.566;2022-08-07T00:30:10;18.02;83.91
64111;DHT22;50401;48.188;11.566;2022-08-07T00:32:36;17.71;84.83
64111;DHT22;50401;48.188;11.566;2022-08-07T00:35:01;17.68;85.12
64111;DHT22;50401;48.188;11.566;2022-08-07T00:37:26;17.64;84.69
64111;DHT22;50401;48.188;11.566;2022-08-07T00:39:52;17.54;85.07
64111;DHT22;50401;48.188;11.566;2022-08-07T00:42:21;17.61;84.76
64111;DHT22;50401;48.188;11.566;2022-08-07T00:44:46;17.65;84.56
64111;DHT22;50401;48.188;11.566;2022-08-07T00:47:11;17.72;84.16
64111;DHT22;50401;48.188;11.566;2022-08-07T00:49:37;17.78;83.84
64111;DHT22;50401;48.188;11.566;2022-08-07T00:52:07;17.55;84.57
64111;DHT22;50401;48.188;11.566;2022-08-07T00:54:33;17.76;84.08
64111;DHT22;50401;48.188;11.566;2022-08-07T00:56:58;17.82;83.20
64111;DHT22;50401;48.188;11.566;2022-08-07T00:59:23;17.76;83.50
64111;DHT22;50401;48.188;11.566;2022-08-07T01:01:49;17.93;82.88
64111;DHT22;50401;48.188;11.566;2022-08-07T01:04:16;18.00;82.25
64111;DHT22;50401;48.188;11.566;2022-08-07T01:06:42;18.04;81.98
64111;DHT22;50401;48.188;11.566;2022-08-07T01:09:08;18.11;81.65
64111;DHT22;50401;48.188;11.566;2022-08-07T01:11:34;18.10;81.78
64111;DHT22;50401;48.188;11.566;2022-08-07T01:14:00;18.13;81.36
64111;DHT22;50401;48.188;11.566;2022-08-07T01:16:25;18.02;81.51
64111;DHT22;50401;48.188;11.566;2022-08-07T01:18:53;17.82;82.47
64111;DHT22;50401;48.188;11.566;2022-08-07T01:21:19;17.82;82.56
64111;DHT22;50401;48.188;11.566;2022-08-07T01:23:47;17.79;82.53
64111;DHT22;50401;48.188;11.566;2022-08-07T01:26:14;17.52;83.11
64111;DHT22;50401;48.188;11.566;2022-08-07T01:28:44;17.62;82.82
64111;DHT22;50401;48.188;11.566;2022-08-07T01:31:09;17.44;83.28
64111;DHT22;50401;48.188;11.566;2022-08-07T01:33:35;17.47;83.48
64111;DHT22;50401;48.188;11.566;2022-08-07T01:36:01;17.35;83.49
64111;DHT22;50401;48.188;11.566;2022-08-07T01:38:28;17.45;83.35
64111;DHT22;50401;48.188;11.566;2022-08-07T01:40:56;17.65;82.86
64111;DHT22;50401;48.188;11.566;2022-08-07T01:43:23;17.72;82.41
64111;DHT22;50401;48.188;11.566;2022-08-07T01:45:49;17.82;82.48
64111;DHT22;50401;48.188;11.566;2022-08-07T01:48:15;17.92;82.36
64111;DHT22;50401;48.188;11.566;2022-08-07T01:50:41;17.96;82.31
64111;DHT22;50401;48.188;11.566;2022-08-07T01:53:08;17.86;82.11
64111;DHT22;50401;48.188;11.566;2022-08-07T01:56:00;17.64;83.26
64111;DHT22;50401;48.188;11.566;2022-08-07T01:58:30;17.81;82.54
64111;DHT22;50401;48.188;11.566;2022-08-07T02:01:26;17.71;82.52
64111;DHT22;50401;48.188;11.566;2022-08-07T02:03:58;17.54;83.43
64111;DHT22;50401;48.188;11.566;2022-08-07T02:06:29;17.64;83.49
64111;DHT22;50401;48.188;11.566;2022-08-07T02:08:58;17.72;83.40
64111;DHT22;50401;48.188;11.566;2022-08-07T02:11:24;17.78;83.00
64111;DHT22;50401;48.188;11.566;2022-08-07T02:13:52;17.58;83.84
64111;DHT22;50401;48.188;11.566;2022-08-07T02:16:19;17.51;84.11
64111;DHT22;50401;48.188;11.566;2022-08-07T02:18:47;17.51;84.46
64111;DHT22;50401;48.188;11.566;2022-08-07T02:21:14;17.34;85.29
64111;DHT22;50401;48.188;11.566;2022-08-07T02:23:40;17.47;84.86
64111;DHT22;50401;48.188;11.566;2022-08-07T02:26:07;17.48;84.38
64111;DHT22;50401;48.188;11.566;2022-08-07T02:28:33;17.37;84.75
64111;DHT22;50401;48.188;11.566;2022-08-07T02:31:01;17.37;84.83
64111;DHT22;50401;48.188;11.566;2022-08-07T02:33:28;17.40;84.79
64111;DHT22;50401;48.188;11.566;2022-08-07T02:35:54;17.35;84.81
64111;DHT22;50401;48.188;11.566;2022-08-07T02:38:24;16.96;86.19
64111;DHT22;50401;48.188;11.566;2022-08-07T02:40:51;16.95;86.34
64111;DHT22;50401;48.188;11.566;2022-08-07T02:43:17;16.82;86.96
64111;DHT22;50401;48.188;11.566;2022-08-07T02:45:43;16.81;86.76
64111;DHT22;50401;48.188;11.566;2022-08-07T02:48:09;16.69;87.08
64111;DHT22;50401;48.188;11.566;2022-08-07T02:50:38;16.78;86.70
64111;DHT22;50401;48.188;11.566;2022-08-07T02:53:10;16.60;87.37
64111;DHT22;50401;48.188;11.566;2022-08-07T02:55:38;16.69;86.78
64111;DHT22;50401;48.188;11.566;2022-08-07T02:58:10;16.57;87.20
64111;DHT22;50401;48.188;11.566;2022-08-07T03:00:37;16.64;86.83
64111;DHT22;50401;48.188;11.566;2022-08-07T03:03:05;16.65;86.51
64111;DHT22;50401;48.188;11.566;2022-08-07T03:05:31;16.53;86.81
64111;DHT22;50401;48.188;11.566;2022-08-07T03:07:57;16.53;86.95
64111;DHT22;50401;48.188;11.566;2022-08-07T03:10:23;16.67;86.27
64111;DHT22;50401;48.188;11.566;2022-08-07T03:12:49;16.51;87.10
64111;DHT22;50401;48.188;11.566;2022-08-07T03:15:16;16.71;86.22
64111;DHT22;50401;48.188;11.566;2022-08-07T03:17:42;16.78;85.75
64111;DHT22;50401;48.188;11.566;2022-08-07T03:20:08;16.88;85.05
64111;DHT22;50401;48.188;11.566;2022-08-07T03:22:35;16.93;84.75
64111;DHT22;50401;48.188;11.566;2022-08-07T03:25:02;16.95;84.55
64111;DHT22;50401;48.188;11.566;2022-08-07T03:27:28;16.85;84.84
64111;DHT22;50401;48.188;11.566;2022-08-07T03:29:54;16.71;85.31
64111;DHT22;50401;48.188;11.566;2022-08-07T03:32:35;16.85;84.84
64111;DHT22;50401;48.188;11.566;2022-08-07T03:35:03;16.89;84.55
64111;DHT22;50401;48.188;11.566;2022-08-07T03:37:31;16.89;84.64
64111;DHT22;50401;48.188;11.566;2022-08-07T03:39:57;16.93;84.40
64111;DHT22;50401;48.188;11.566;2022-08-07T03:42:24;16.69;85.29
64111;DHT22;50401;48.188;11.566;2022-08-07T03:44:49;16.85;84.68
64111;DHT22;50401;48.188;11.566;2022-08-07T03:47:15;16.81;84.75
64111;DHT22;50401;48.188;11.566;2022-08-07T03:49:42;16.74;84.88
64111;DHT22;50401;48.188;11.566;2022-08-07T03:52:08;16.82;84.65
64111;DHT22;50401;48.188;11.566;2022-08-07T03:54:35;16.88;84.38
64111;DHT22;50401;48.188;11.566;2022-08-07T03:57:03;16.89;84.41
64111;DHT22;50401;48.188;11.566;2022-08-07T03:59:29;16.85;84.35
64111;DHT22;50401;48.188;11.566;2022-08-07T04:01:56;16.86;84.20
64111;DHT22;50401;48.188;11.566;2022-08-07T04:04:22;16.89;84.08
64111;DHT22;50401;48.188;11.566;2022-08-07T04:06:47;16.86;84.15
64111;DHT22;50401;48.188;11.566;2022-08-07T04:09:14;16.88;84.21
64111;DHT22;50401;48.188;11.566;2022-08-07T04:11:40;16.86;84.11
64111;DHT22;50401;48.188;11.566;2022-08-07T04:14:06;16.82;84.54
64111;DHT22;50401;48.188;11.566;2022-08-07T04:16:33;16.82;84.11
64111;DHT22;50401;48.188;11.566;2022-08-07T04:18:59;16.82;84.15
64111;DHT22;50401;48.188;11.566;2022-08-07T04:21:25;16.91;84.04
64111;DHT22;50401;48.188;11.566;2022-08-07T04:23:51;16.93;83.65
64111;DHT22;50401;48.188;11.566;2022-08-07T04:26:16;16.92;83.57
64111;DHT22;50401;48.188;11.566;2022-08-07T04:28:42;16.81;83.80
64111;DHT22;50401;48.188;11.566;2022-08-07T04:31:09;16.91;83.63
64111;DHT22;50401;48.188;11.566;2022-08-07T04:33:38;16.99;83.50
64111;DHT22;50401;48.188;11.566;2022-08-07T04:36:07;17.03;83.24
64111;DHT22;50401;48.188;11.566;2022-08-07T04:38:33;17.03;83.02
64111;DHT22;50401;48.188;11.566;2022-08-07T04:40:59;17.03;83.03
64111;DHT22;50401;48.188;11.566;2022-08-07T04:43:28;17.09;82.68
64111;DHT22;50401;48.188;11.566;2022-08-07T04:48:49;17.00;82.42
64111;DHT22;50401;48.188;11.566;2022-08-07T04:51:31;17.02;82.45
64111;DHT22;50401;48.188;11.566;2022-08-07T04:56:53;17.12;81.64
64111;DHT22;50401;48.188;11.566;2022-08-07T05:02:08;17.17;80.98
64111;DHT22;50401;48.188;11.566;2022-08-07T05:04:48;17.05;81.15
64111;DHT22;50401;48.188;11.566;2022-08-07T05:07:24;17.15;80.97
64111;DHT22;50401;48.188;11.566;2022-08-07T05:12:27;17.68;78.66
64111;DHT22;50401;48.188;11.566;2022-08-07T05:15:12;17.75;77.63
64111;DHT22;50401;48.188;11.566;2022-08-07T05:18:02;17.82;77.05
64111;DHT22;50401;48.188;11.566;2022-08-07T05:20:32;17.83;76.57
64111;DHT22;50401;48.188;11.566;2022-08-07T05:23:03;18.36;75.58
64111;DHT22;50401;48.188;11.566;2022-08-07T05:25:30;18.59;73.78
64111;DHT22;50401;48.188;11.566;2022-08-07T05:27:57;18.51;73.28
64111;DHT22;50401;48.188;11.566;2022-08-07T05:30:24;18.30;73.78
64111;DHT22;50401;48.188;11.566;2022-08-07T05:32:50;18.41;73.31
64111;DHT22;50401;48.188;11.566;2022-08-07T05:35:17;18.51;73.06
64111;DHT22;50401;48.188;11.566;2022-08-07T05:37:44;18.62;71.67
64111;DHT22;50401;48.188;11.566;2022-08-07T05:40:11;18.43;71.75
64111;DHT22;50401;48.188;11.566;2022-08-07T05:42:37;18.47;71.64
64111;DHT22;50401;48.188;11.566;2022-08-07T05:45:04;18.72;71.01
64111;DHT22;50401;48.188;11.566;2022-08-07T05:47:31;19.08;69.35
64111;DHT22;50401;48.188;11.566;2022-08-07T05:49:57;19.34;68.25
64111;DHT22;50401;48.188;11.566;2022-08-07T05:52:22;19.49;66.46
64111;DHT22;50401;48.188;11.566;2022-08-07T05:54:48;19.98;65.45
64111;DHT22;50401;48.188;11.566;2022-08-07T05:57:14;20.10;63.81
64111;DHT22;50401;48.188;11.566;2022-08-07T05:59:41;20.31;63.23
64111;DHT22;50401;48.188;11.566;2022-08-07T06:02:12;20.80;61.96
64111;DHT22;50401;48.188;11.566;2022-08-07T06:04:41;21.41;59.99
64111;DHT22;50401;48.188;11.566;2022-08-07T06:07:07;22.01;57.91
64111;DHT22;50401;48.188;11.566;2022-08-07T06:09:33;21.46;58.02
64111;DHT22;50401;48.188;11.566;2022-08-07T06:11:59;22.08;56.67
64111;DHT22;50401;48.188;11.566;2022-08-07T06:14:25;22.59;54.96
64111;DHT22;50401;48.188;11.566;2022-08-07T06:16:51;23.04;53.54
64111;DHT22;50401;48.188;11.566;2022-08-07T06:19:19;22.95;53.39
64111;DHT22;50401;48.188;11.566;2022-08-07T06:21:45;23.11;53.42
64111;DHT22;50401;48.188;11.566;2022-08-07T06:24:11;23.49;52.01
64111;DHT22;50401;48.188;11.566;2022-08-07T06:26:40;23.13;52.16
64111;DHT22;50401;48.188;11.566;2022-08-07T06:29:06;20.60;59.25
64111;DHT22;50401;48.188;11.566;2022-08-07T06:31:32;21.69;57.08
64111;DHT22;50401;48.188;11.566;2022-08-07T06:33:58;21.84;56.34
64111;DHT22;50401;48.188;11.566;2022-08-07T06:36:24;21.52;55.90
64111;DHT22;50401;48.188;11.566;2022-08-07T06:38:52;21.41;58.03
64111;DHT22;50401;48.188;11.566;2022-08-07T06:41:21;22.16;55.22
64111;DHT22;50401;48.188;11.566;2022-08-07T06:43:47;20.25;59.82
64111;DHT22;50401;48.188;11.566;2022-08-07T06:46:14;19.07;63.83
64111;DHT22;50401;48.188;11.566;2022-08-07T06:48:40;19.58;62.89
64111;DHT22;50401;48.188;11.566;2022-08-07T06:51:08;20.57;60.42
64111;DHT22;50401;48.188;11.566;2022-08-07T06:53:36;20.62;60.00
64111;DHT22;50401;48.188;11.566;2022-08-07T06:56:04;21.01;58.05
64111;DHT22;50401;48.188;11.566;2022-08-07T06:58:33;20.53;59.42
64111;DHT22;50401;48.188;11.566;2022-08-07T07:01:01;19.61;63.13
64111;DHT22;50401;48.188;11.566;2022-08-07T07:03:27;19.25;63.64
64111;DHT22;50401;48.188;11.566;2022-08-07T07:05:52;19.94;62.57
64111;DHT22;50401;48.188;11.566;2022-08-07T07:08:24;19.90;62.24
64111;DHT22;50401;48.188;11.566;2022-08-07T07:10:49;20.72;59.86
64111;DHT22;50401;48.188;11.566;2022-08-07T07:13:18;22.18;55.76
64111;DHT22;50401;48.188;11.566;2022-08-07T07:15:50;22.52;53.85
64111;DHT22;50401;48.188;11.566;2022-08-07T07:18:23;20.20;61.35
64111;DHT22;50401;48.188;11.566;2022-08-07T07:20:55;21.64;57.55
64111;DHT22;50401;48.188;11.566;2022-08-07T07:23:22;20.00;61.42
64111;DHT22;50401;48.188;11.566;2022-08-07T07:25:51;19.98;62.61
64111;DHT22;50401;48.188;11.566;2022-08-07T07:28:21;19.35;63.98
64111;DHT22;50401;48.188;11.566;2022-08-07T07:31:00;19.74;63.12
64111;DHT22;50401;48.188;11.566;2022-08-07T07:33:27;20.76;60.49
64111;DHT22;50401;48.188;11.566;2022-08-07T07:35:55;21.28;58.54
64111;DHT22;50401;48.188;11.566;2022-08-07T07:38:23;21.45;58.75
64111;DHT22;50401;48.188;11.566;2022-08-07T07:40:57;21.94;57.41
64111;DHT22;50401;48.188;11.566;2022-08-07T07:43:23;22.35;55.78
64111;DHT22;50401;48.188;11.566;2022-08-07T07:45:50;22.78;54.15
64111;DHT22;50401;48.188;11.566;2022-08-07T07:48:20;23.20;52.90
64111;DHT22;50401;48.188;11.566;2022-08-07T07:50:46;24.26;50.77
64111;DHT22;50401;48.188;11.566;2022-08-07T07:53:13;25.88;46.19
64111;DHT22;50401;48.188;11.566;2022-08-07T07:55:39;24.15;49.37
64111;DHT22;50401;48.188;11.566;2022-08-07T07:58:05;25.02;48.29
64111;DHT22;50401;48.188;11.566;2022-08-07T08:00:31;24.44;46.50
64111;DHT22;50401;48.188;11.566;2022-08-07T08:03:17;23.18;50.87
64111;DHT22;50401;48.188;11.566;2022-08-07T08:05:43;24.50;47.39
64111;DHT22;50401;48.188;11.566;2022-08-07T08:08:10;25.96;43.69
64111;DHT22;50401;48.188;11.566;2022-08-07T08:10:37;23.58;49.60
64111;DHT22;50401;48.188;11.566;2022-08-07T08:13:03;25.86;43.51
64111;DHT22;50401;48.188;11.566;2022-08-07T08:15:34;25.23;45.00
64111;DHT22;50401;48.188;11.566;2022-08-07T08:18:01;23.71;46.82
64111;DHT22;50401;48.188;11.566;2022-08-07T08:20:30;22.05;51.37
64111;DHT22;50401;48.188;11.566;2022-08-07T08:22:57;22.00;51.82
64111;DHT22;50401;48.188;11.566;2022-08-07T08:25:43;21.85;51.51
64111;DHT22;50401;48.188;11.566;2022-08-07T08:28:28;22.40;50.84
64111;DHT22;50401;48.188;11.566;2022-08-07T08:30:58;23.60;47.80
64111;DHT22;50401;48.188;11.566;2022-08-07T08:33:28;21.95;51.84
64111;DHT22;50401;48.188;11.566;2022-08-07T08:35:54;21.90;53.01
64111;DHT22;50401;48.188;11.566;2022-08-07T08:38:24;23.16;49.33
64111;DHT22;50401;48.188;11.566;2022-08-07T08:40:59;23.63;47.54
64111;DHT22;50401;48.188;11.566;2022-08-07T08:43:41;23.18;49.01
64111;DHT22;50401;48.188;11.566;2022-08-07T08:46:20;22.71;49.09
64111;DHT22;50401;48.188;11.566;2022-08-07T08:48:56;22.53;50.29
64111;DHT22;50401;48.188;11.566;2022-08-07T08:51:27;22.21;50.90
64111;DHT22;50401;48.188;11.566;2022-08-07T08:54:08;21.61;52.76
64111;DHT22;50401;48.188;11.566;2022-08-07T08:56:36;21.18;53.80
64111;DHT22;50401;48.188;11.566;2022-08-07T08:59:06;21.83;53.00
64111;DHT22;50401;48.188;11.566;2022-08-07T09:01:59;21.21;54.35
64111;DHT22;50401;48.188;11.566;2022-08-07T09:04:59;21.01;55.25
64111;DHT22;50401;48.188;11.566;2022-08-07T09:07:52;21.59;53.38
64111;DHT22;50401;48.188;11.566;2022-08-07T09:15:46;21.42;53.90
64111;DHT22;50401;48.188;11.566;2022-08-07T09:21:32;22.04;52.85
64111;DHT22;50401;48.188;11.566;2022-08-07T09:24:15;22.74;50.33
64111;DHT22;50401;48.188;11.566;2022-08-07T09:35:43;22.23;51.74
64111;DHT22;50401;48.188;11.566;2022-08-07T09:38:24;21.94;52.22
64111;DHT22;50401;48.188;11.566;2022-08-07T09:49:41;21.54;52.81
64111;DHT22;50401;48.188;11.566;2022-08-07T09:52:28;21.93;52.61
64111;DHT22;50401;48.188;11.566;2022-08-07T10:00:19;22.05;50.18
64111;DHT22;50401;48.188;11.566;2022-08-07T10:17:06;21.90;52.01
64111;DHT22;50401;48.188;11.566;2022-08-07T10:28:11;21.93;52.69
64111;DHT22;50401;48.188;11.566;2022-08-07T10:41:54;21.87;52.07
64111;DHT22;50401;48.188;11.566;2022-08-07T10:47:04;22.70;49.58
64111;DHT22;50401;48.188;11.566;2022-08-07T10:49:39;22.70;50.30
64111;DHT22;50401;48.188;11.566;2022-08-07T10:52:24;21.97;52.48
64111;DHT22;50401;48.188;11.566;2022-08-07T10:57:45;22.64;50.50
64111;DHT22;50401;48.188;11.566;2022-08-07T11:00:13;22.75;49.98
64111;DHT22;50401;48.188;11.566;2022-08-07T11:03:04;22.56;51.10
64111;DHT22;50401;48.188;11.566;2022-08-07T11:05:39;22.02;52.56
64111;DHT22;50401;48.188;11.566;2022-08-07T11:11:10;22.78;50.82
64111;DHT22;50401;48.188;11.566;2022-08-07T11:13:45;21.94;52.47
64111;DHT22;50401;48.188;11.566;2022-08-07T11:16:18;21.61;53.50
64111;DHT22;50401;48.188;11.566;2022-08-07T11:18:49;21.84;53.10
64111;DHT22;50401;48.188;11.566;2022-08-07T11:21:28;22.22;52.37
64111;DHT22;50401;48.188;11.566;2022-08-07T11:24:03;22.11;52.61
64111;DHT22;50401;48.188;11.566;2022-08-07T11:26:40;22.21;52.43
64111;DHT22;50401;48.188;11.566;2022-08-07T11:32:15;21.74;52.53
64111;DHT22;50401;48.188;11.566;2022-08-07T11:35:00;22.11;51.31
64111;DHT22;50401;48.188;11.566;2022-08-07T12:01:49;21.97;51.47
64111;DHT22;50401;48.188;11.566;2022-08-07T12:04:33;22.21;51.21
64111;DHT22;50401;48.188;11.566;2022-08-07T12:09:35;21.98;51.82
64111;DHT22;50401;48.188;11.566;2022-08-07T12:12:09;21.88;52.13
64111;DHT22;50401;48.188;11.566;2022-08-07T12:15:09;21.78;52.30
64111;DHT22;50401;48.188;11.566;2022-08-07T12:17:41;21.52;52.62
64111;DHT22;50401;48.188;11.566;2022-08-07T12:20:27;21.67;52.81
64111;DHT22;50401;48.188;11.566;2022-08-07T12:25:44;22.05;51.49
64111;DHT22;50401;48.188;11.566;2022-08-07T12:28:42;22.35;51.14
64111;DHT22;50401;48.188;11.566;2022-08-07T12:31:21;22.50;51.24
64111;DHT22;50401;48.188;11.566;2022-08-07T12:33:50;22.30;51.29
64111;DHT22;50401;48.188;11.566;2022-08-07T12:36:16;22.56;51.29
64111;DHT22;50401;48.188;11.566;2022-08-07T12:38:44;22.64;50.85
64111;DHT22;50401;48.188;11.566;2022-08-07T12:41:13;22.40;51.64
64111;DHT22;50401;48.188;11.566;2022-08-07T12:43:40;22.35;50.81
64111;DHT22;50401;48.188;11.566;2022-08-07T12:48:57;22.56;49.78
64111;DHT22;50401;48.188;11.566;2022-08-07T12:51:34;22.67;49.32
64111;DHT22;50401;48.188;11.566;2022-08-07T12:54:42;22.52;49.94
64111;DHT22;50401;48.188;11.566;2022-08-07T12:57:00;22.80;49.51
64111;DHT22;50401;48.188;11.566;2022-08-07T12:59:29;22.75;49.90
64111;DHT22;50401;48.188;11.566;2022-08-07T13:07:38;22.56;48.64
64111;DHT22;50401;48.188;11.566;2022-08-07T13:16:42;22.29;50.10
64111;DHT22;50401;48.188;11.566;2022-08-07T13:25:02;22.42;50.74
64111;DHT22;50401;48.188;11.566;2022-08-07T13:27:50;22.37;50.50
64111;DHT22;50401;48.188;11.566;2022-08-07T13:30:18;22.50;50.06
64111;DHT22;50401;48.188;11.566;2022-08-07T13:32:59;22.61;48.70
64111;DHT22;50401;48.188;11.566;2022-08-07T13:35:36;22.47;48.85
64111;DHT22;50401;48.188;11.566;2022-08-07T13:38:19;22.39;49.73
64111;DHT22;50401;48.188;11.566;2022-08-07T13:43:20;22.49;49.22
64111;DHT22;50401;48.188;11.566;2022-08-07T13:45:53;22.84;47.91
64111;DHT22;50401;48.188;11.566;2022-08-07T13:48:19;22.83;46.28
64111;DHT22;50401;48.188;11.566;2022-08-07T13:50:45;23.06;46.50
64111;DHT22;50401;48.188;11.566;2022-08-07T13:53:22;23.11;46.65
64111;DHT22;50401;48.188;11.566;2022-08-07T13:55:48;23.23;46.47
64111;DHT22;50401;48.188;11.566;2022-08-07T13:58:15;22.97;46.44
64111;DHT22;50401;48.188;11.566;2022-08-07T14:01:08;22.52;47.83
64111;DHT22;50401;48.188;11.566;2022-08-07T14:03:35;22.59;47.33
64111;DHT22;50401;48.188;11.566;2022-08-07T14:06:05;22.84;47.55
64111;DHT22;50401;48.188;11.566;2022-08-07T14:08:32;22.90;46.85
64111;DHT22;50401;48.188;11.566;2022-08-07T14:11:00;22.75;47.30
64111;DHT22;50401;48.188;11.566;2022-08-07T14:13:29;22.81;47.83
64111;DHT22;50401;48.188;11.566;2022-08-07T14:16:01;23.11;47.77
64111;DHT22;50401;48.188;11.566;2022-08-07T14:18:30;23.06;46.59
64111;DHT22;50401;48.188;11.566;2022-08-07T14:21:04;23.32;47.11
64111;DHT22;50401;48.188;11.566;2022-08-07T14:23:34;23.20;47.11
64111;DHT22;50401;48.188;11.566;2022-08-07T14:26:11;23.34;47.12
64111;DHT22;50401;48.188;11.566;2022-08-07T14:28:43;23.20;47.18
64111;DHT22;50401;48.188;11.566;2022-08-07T14:31:10;22.60;47.46
64111;DHT22;50401;48.188;11.566;2022-08-07T14:33:36;22.70;47.41
64111;DHT22;50401;48.188;11.566;2022-08-07T14:36:03;22.80;47.38
64111;DHT22;50401;48.188;11.566;2022-08-07T14:38:30;22.74;47.85
64111;DHT22;50401;48.188;11.566;2022-08-07T14:41:02;22.57;48.37
64111;DHT22;50401;48.188;11.566;2022-08-07T14:43:31;22.88;47.93
64111;DHT22;50401;48.188;11.566;2022-08-07T14:45:58;22.87;48.24
64111;DHT22;50401;48.188;11.566;2022-08-07T14:48:28;22.95;47.78
64111;DHT22;50401;48.188;11.566;2022-08-07T14:50:57;23.01;48.29
64111;DHT22;50401;48.188;11.566;2022-08-07T14:53:25;23.15;47.94
64111;DHT22;50401;48.188;11.566;2022-08-07T14:55:53;22.94;48.22
64111;DHT22;50401;48.188;11.566;2022-08-07T14:58:23;22.72;49.08
64111;DHT22;50401;48.188;11.566;2022-08-07T15:00:50;22.86;48.46
64111;DHT22;50401;48.188;11.566;2022-08-07T15:03:21;22.59;48.34
64111;DHT22;50401;48.188;11.566;2022-08-07T15:05:48;22.61;48.24
64111;DHT22;50401;48.188;11.566;2022-08-07T15:08:28;22.84;48.00
64111;DHT22;50401;48.188;11.566;2022-08-07T15:11:00;23.01;47.69
64111;DHT22;50401;48.188;11.566;2022-08-07T15:13:27;22.87;48.27
64111;DHT22;50401;48.188;11.566;2022-08-07T15:15:59;22.90;47.96
64111;DHT22;50401;48.188;11.566;2022-08-07T15:18:36;23.02;47.72
64111;DHT22;50401;48.188;11.566;2022-08-07T15:21:06;23.08;47.85
64111;DHT22;50401;48.188;11.566;2022-08-07T15:23:33;23.08;47.99
64111;DHT22;50401;48.188;11.566;2022-08-07T15:26:02;22.72;48.87
64111;DHT22;50401;48.188;11.566;2022-08-07T15:28:31;22.81;48.76
64111;DHT22;50401;48.188;11.566;2022-08-07T15:31:03;22.47;48.85
64111;DHT22;50401;48.188;11.566;2022-08-07T15:33:31;22.52;48.86
64111;DHT22;50401;48.188;11.566;2022-08-07T15:35:58;22.63;48.94
64111;DHT22;50401;48.188;11.566;2022-08-07T15:38:27;22.54;49.03
64111;DHT22;50401;48.188;11.566;2022-08-07T15:40:54;22.59;49.19
64111;DHT22;50401;48.188;11.566;2022-08-07T15:43:25;22.64;48.94
64111;DHT22;50401;48.188;11.566;2022-08-07T15:45:53;22.63;48.84
64111;DHT22;50401;48.188;11.566;2022-08-07T15:48:30;22.77;48.52
64111;DHT22;50401;48.188;11.566;2022-08-07T15:51:04;22.84;48.80
64111;DHT22;50401;48.188;11.566;2022-08-07T15:53:40;23.01;48.13
64111;DHT22;50401;48.188;11.566;2022-08-07T15:56:08;22.97;47.88
64111;DHT22;50401;48.188;11.566;2022-08-07T15:58:53;22.80;48.45
64111;DHT22;50401;48.188;11.566;2022-08-07T16:01:28;22.61;49.03
64111;DHT22;50401;48.188;11.566;2022-08-07T16:04:03;22.53;49.37
64111;DHT22;50401;48.188;11.566;2022-08-07T16:06:33;22.54;48.87
64111;DHT22;50401;48.188;11.566;2022-08-07T16:09:07;22.57;49.03
64111;DHT22;50401;48.188;11.566;2022-08-07T16:11:54;22.54;49.25
64111;DHT22;50401;48.188;11.566;2022-08-07T16:14:55;22.74;48.82
64111;DHT22;50401;48.188;11.566;2022-08-07T16:17:26;22.70;49.37
64111;DHT22;50401;48.188;11.566;2022-08-07T16:20:12;22.77;49.14
64111;DHT22;50401;48.188;11.566;2022-08-07T16:22:54;22.30;50.45
64111;DHT22;50401;48.188;11.566;2022-08-07T16:26:02;22.18;51.01
64111;DHT22;50401;48.188;11.566;2022-08-07T16:31:44;22.36;51.20
64111;DHT22;50401;48.188;11.566;2022-08-07T16:34:21;22.50;49.92
64111;DHT22;50401;48.188;11.566;2022-08-07T16:45:28;22.04;52.70
64111;DHT22;50401;48.188;11.566;2022-08-07T16:48:24;22.13;52.24
64111;DHT22;50401;48.188;11.566;2022-08-07T16:51:11;22.21;52.02
64111;DHT22;50401;48.188;11.566;2022-08-07T16:59:38;22.26;51.54
64111;DHT22;50401;48.188;11.566;2022-08-07T17:07:36;21.94;52.63
64111;DHT22;50401;48.188;11.566;2022-08-07T17:10:08;21.93;52.90
64111;DHT22;50401;48.188;11.566;2022-08-07T17:12:46;21.91;53.15
64111;DHT22;50401;48.188;11.566;2022-08-07T17:17:47;21.81;53.42
64111;DHT22;50401;48.188;11.566;2022-08-07T17:20:15;21.98;53.13
64111;DHT22;50401;48.188;11.566;2022-08-07T17:22:56;22.04;52.96
64111;DHT22;50401;48.188;11.566;2022-08-07T17:25:32;22.11;52.60
64111;DHT22;50401;48.188;11.566;2022-08-07T17:28:16;21.87;52.97
64111;DHT22;50401;48.188;11.566;2022-08-07T17:30:51;21.87;53.27
64111;DHT22;50401;48.188;11.566;2022-08-07T17:33:28;21.83;53.28
64111;DHT22;50401;48.188;11.566;2022-08-07T17:36:02;21.81;53.75
64111;DHT22;50401;48.188;11.566;2022-08-07T17:38:38;21.69;54.05
64111;DHT22;50401;48.188;11.566;2022-08-07T17:41:17;21.71;53.94
64111;DHT22;50401;48.188;11.566;2022-08-07T17:43:57;21.77;53.87
64111;DHT22;50401;48.188;11.566;2022-08-07T17:46:35;21.85;53.72
64111;DHT22;50401;48.188;11.566;2022-08-07T17:49:22;21.70;54.29
64111;DHT22;50401;48.188;11.566;2022-08-07T17:52:10;21.78;54.43
64111;DHT22;50401;48.188;11.566;2022-08-07T17:57:28;21.67;54.43
64111;DHT22;50401;48.188;11.566;2022-08-07T18:00:01;21.71;54.31
64111;DHT22;50401;48.188;11.566;2022-08-07T18:02:37;21.73;54.29
64111;DHT22;50401;48.188;11.566;2022-08-07T18:05:13;21.73;54.26
64111;DHT22;50401;48.188;11.566;2022-08-07T18:07:50;21.53;54.93
64111;DHT22;50401;48.188;11.566;2022-08-07T18:10:22;21.53;55.05
64111;DHT22;50401;48.188;11.566;2022-08-07T18:13:19;21.60;54.89
64111;DHT22;50401;48.188;11.566;2022-08-07T18:18:44;21.56;54.83
64111;DHT22;50401;48.188;11.566;2022-08-07T18:21:38;21.53;54.90
64111;DHT22;50401;48.188;11.566;2022-08-07T18:25:13;21.57;54.91
64111;DHT22;50401;48.188;11.566;2022-08-07T18:30:09;21.63;54.92
64111;DHT22;50401;48.188;11.566;2022-08-07T18:41:37;21.35;55.97
64111;DHT22;50401;48.188;11.566;2022-08-07T18:44:32;21.43;55.74